Latest Weather Observations for Wyndham Airport

IDD60801

Issued at 1:05 pm CST Thursday 31 July 2014 (issued every 30 minutes, with the page automatically refreshed every 10 minutes)

About weather observations | Map of weather stations | Latest weather observations for NT | Other Formats
Station Details ID: 001006 Name: WYNDHAM AERO Lat: -15.51 Lon: 128.15 Height: 3.8 m
Data from the previous 72 hours. | See also: Recent months for locations in Northern Territory
Date/Time
CST
Temp
°C
App
Temp
°C
Dew
Point
Rel
Hum
%
Delta-T
°C
Wind Press
QNH
hPa
Press
MSL
hPa
Rain
since 9 am
mm
Dir
 
Spd
km/h
Gust
km/h
Spd
kts
Gust
kts
31/01:00pm 32.6 26.5 0.6 13 15.7 E 22 30 12 16 1015.0 - 0.0
31/12:30pm 33.0 26.8 -0.2 12 16.1 E 22 32 12 17 1015.4 1015.4 0.0
31/12:00pm 32.5 25.9 -0.5 12 15.9 ENE 24 32 13 17 1015.9 - 0.0
31/11:30am 31.5 24.7 0.8 14 15.0 E 26 35 14 19 1016.3 1016.3 0.0
31/11:00am 31.2 25.1 0.6 14 14.9 E 22 30 12 16 1016.7 - 0.0
31/10:30am 30.5 24.3 0.0 14 14.6 E 22 30 12 16 1016.9 1016.9 0.0
31/10:00am 30.1 25.5 1.5 16 14.0 ESE 15 22 8 12 1017.0 - 0.0
31/09:30am 27.2 25.9 6.0 26 11.0 NNE 2 9 1 5 1016.8 1016.8 0.0
31/09:00am 23.9 22.0 7.5 35 8.6 SSW 7 9 4 5 1016.5 - 0.0
31/08:30am 21.5 20.6 9.1 45 6.6 WSW 4 6 2 3 1016.2 1016.2 0.0
31/08:00am 18.5 17.7 11.1 62 4.0 NW 6 7 3 4 1015.9 - 0.0
31/07:30am 16.2 16.0 8.9 62 3.7 WNW 0 0 0 0 1015.6 1015.6 0.0
31/07:00am 16.1 15.8 8.8 62 3.7 CALM 0 0 0 0 1015.1 - 0.0
31/06:30am 17.3 16.4 10.7 65 3.5 N 6 7 3 4 1014.7 1014.7 0.0
31/06:00am 17.7 17.9 11.9 69 3.2 NW 2 7 1 4 1014.6 - 0.0
31/05:30am 16.6 16.7 10.0 65 3.5 CALM 0 0 0 0 1014.5 1014.5 0.0
31/05:00am 17.0 17.4 11.1 68 3.2 CALM 0 0 0 0 1014.4 - 0.0
31/04:30am 17.2 17.1 9.4 60 4.1 CALM 0 0 0 0 1014.4 1014.4 0.0
31/04:00am 18.7 18.2 12.0 65 3.7 NNW 6 9 3 5 1014.4 - 0.0
31/03:30am 19.4 19.6 13.1 67 3.6 NNW 4 9 2 5 1014.6 1014.6 0.0
31/03:00am 18.6 18.2 11.2 62 4.0 WSW 4 7 2 4 1014.8 - 0.0
31/02:30am 19.8 19.9 12.6 63 4.0 WNW 4 7 2 4 1014.8 1014.8 0.0
31/02:00am 19.6 20.4 12.4 63 4.0 CALM 0 0 0 0 1014.9 - 0.0
31/01:30am 19.8 20.5 12.1 61 4.3 WSW 0 0 0 0 1015.0 1015.0 0.0
31/01:00am 19.3 19.4 10.0 55 5.0 CALM 0 0 0 0 1015.0 - 0.0
31/12:30am 20.0 20.5 11.5 58 4.7 CALM 0 0 0 0 1015.1 1015.1 0.0
31/12:00am 19.9 19.1 10.9 56 4.9 E 6 7 3 4 1015.0 - 0.0
 
Date/Time
CST
Temp
°C
App
Temp
°C
Dew
Point
Rel
Hum
%
Delta-T
°C
Wind Press
QNH
hPa
Press
MSL
hPa
Rain
since 9 am
mm
Dir
 
Spd
km/h
Gust
km/h
Spd
kts
Gust
kts
30/11:30pm 20.8 21.2 11.4 55 5.2 CALM 0 0 0 0 1015.2 1015.2 0.0
30/11:00pm 21.9 22.6 12.2 54 5.5 CALM 0 0 0 0 1015.2 - 0.0
30/10:30pm 22.8 23.5 12.1 51 6.0 CALM 0 0 0 0 1015.1 1015.1 0.0
30/10:00pm 24.8 24.3 12.7 47 7.0 ESE 7 13 4 7 1015.2 - 0.0
30/09:30pm 24.4 23.2 12.7 48 6.7 SSW 11 15 6 8 1015.1 1015.1 0.0
30/09:00pm 25.8 26.7 13.0 45 7.5 CALM 0 6 0 3 1014.9 - 0.0
30/08:30pm 26.7 26.1 12.4 41 8.3 N 7 11 4 6 1014.6 1014.6 0.0
30/08:00pm 27.5 25.9 12.7 40 8.6 N 13 15 7 8 1014.2 - 0.0
30/07:30pm 28.4 26.9 13.1 39 9.0 N 13 19 7 10 1013.8 1013.8 0.0
30/07:00pm 29.0 27.2 13.2 37 9.4 N 15 20 8 11 1013.5 - 0.0
30/06:30pm 30.0 27.4 13.3 36 9.9 N 19 24 10 13 1013.2 1013.2 0.0
30/06:00pm 31.0 28.6 12.8 32 10.8 N 17 22 9 12 1012.9 - 0.0
30/05:30pm 33.4 29.6 7.4 20 14.3 E 17 22 9 12 1012.7 1012.7 0.0
30/05:00pm 33.5 30.1 7.5 20 14.4 ENE 15 19 8 10 1012.4 - 0.0
30/04:30pm 34.2 30.5 8.0 20 14.6 E 17 28 9 15 1012.3 1012.3 0.0
30/04:00pm 34.0 30.3 7.9 20 14.5 E 17 26 9 14 1012.4 - 0.0
30/03:30pm 34.0 32.0 8.6 21 14.3 E 9 17 5 9 1012.5 1012.5 0.0
30/03:00pm 34.1 29.3 8.7 21 14.3 E 24 35 13 19 1012.9 - 0.0
30/02:30pm 33.7 29.9 9.0 22 14.0 ESE 19 30 10 16 1013.2 1013.2 0.0
30/02:00pm 34.0 30.5 8.6 21 14.3 E 17 22 9 12 1013.8 - 0.0
30/01:30pm 33.2 29.1 8.6 22 13.8 E 20 30 11 16 1014.5 1014.5 0.0
30/01:00pm 32.7 27.9 8.9 23 13.4 E 24 32 13 17 1015.2 - 0.0
30/12:30pm 32.6 27.9 9.4 24 13.1 E 24 33 13 18 1015.6 1015.6 0.0
30/12:00pm 32.4 26.6 8.0 22 13.5 E 28 39 15 21 1016.1 - 0.0
30/11:30am 32.2 25.6 7.8 22 13.4 E 32 41 17 22 1016.5 1016.5 0.0
30/11:00am 32.2 25.2 4.1 17 14.6 E 30 39 16 21 1016.9 - 0.0
30/10:30am 31.6 24.9 3.6 17 14.3 E 28 37 15 20 1017.1 1017.1 0.0
30/10:00am 31.2 24.4 3.3 17 14.2 ESE 28 35 15 19 1017.2 - 0.0
30/09:30am 29.3 24.1 3.3 19 13.1 ESE 20 26 11 14 1017.2 1017.2 0.0
30/09:00am 27.9 23.9 4.9 23 11.8 ESE 15 19 8 10 1017.2 - 0.0
30/08:30am 25.5 22.9 6.2 29 10.0 E 9 13 5 7 1017.0 1017.0 0.0
30/08:25am 25.0 22.0 6.2 30 9.7 E 11 13 6 7 1017.0 - 0.0
30/08:00am 20.0 17.1 6.4 41 6.8 E 11 11 6 6 1016.6 - 0.0
30/07:30am 18.4 15.1 6.3 45 6.0 E 13 15 7 8 1016.4 1016.4 0.0
30/07:00am 20.3 17.3 5.9 39 7.2 E 11 13 6 7 1016.0 - 0.0
30/06:30am 21.5 18.0 7.0 39 7.4 E 15 15 8 8 1015.7 1015.7 0.0
30/06:00am 18.3 15.4 6.5 46 5.9 E 11 13 6 7 1015.6 - 0.0
30/05:30am 18.4 15.3 7.2 48 5.6 E 13 13 7 7 1015.6 1015.6 0.0
30/05:00am 19.6 16.7 6.7 43 6.5 E 11 13 6 7 1015.3 - 0.0
30/04:30am 20.3 17.1 7.0 42 6.7 E 13 15 7 8 1015.1 1015.1 0.0
30/04:00am 21.8 18.7 7.2 39 7.5 E 13 15 7 8 1015.0 - 0.0
30/03:30am 21.7 18.7 7.5 40 7.3 E 13 13 7 7 1015.1 1015.1 0.0
30/03:00am 22.4 20.0 8.5 41 7.4 E 11 13 6 7 1015.1 - 0.0
30/02:30am 19.4 17.4 8.7 50 5.6 ENE 9 11 5 6 1015.2 1015.2 0.0
30/02:00am 19.0 17.1 9.2 53 5.1 E 9 11 5 6 1015.3 - 0.0
30/01:30am 19.0 17.6 9.5 54 5.0 E 7 11 4 6 1015.4 1015.4 0.0
30/01:00am 19.6 19.7 10.0 54 5.1 CALM 0 0 0 0 1015.3 - 0.0
30/12:30am 20.4 20.2 9.0 48 6.0 CALM 0 0 0 0 1015.4 1015.4 0.0
30/12:00am 21.3 20.4 10.5 50 5.9 W 6 7 3 4 1015.5 - 0.0
 
Date/Time
CST
Temp
°C
App
Temp
°C
Dew
Point
Rel
Hum
%
Delta-T
°C
Wind Press
QNH
hPa
Press
MSL
hPa
Rain
since 9 am
mm
Dir
 
Spd
km/h
Gust
km/h
Spd
kts
Gust
kts
29/11:30pm 22.4 20.5 11.8 51 5.9 E 13 15 7 8 1015.5 1015.5 0.0
29/11:00pm 21.1 18.6 9.7 48 6.1 ESE 13 13 7 7 1015.6 - 0.0
29/10:30pm 22.5 23.0 12.7 54 5.6 SSW 2 9 1 5 1015.6 1015.6 0.0
29/10:00pm 23.2 23.3 11.6 48 6.5 SW 2 9 1 5 1015.6 - 0.0
29/09:30pm 23.9 24.6 12.2 48 6.7 CALM 0 0 0 0 1015.5 1015.5 0.0
29/09:00pm 24.1 24.5 12.4 48 6.7 SW 2 9 1 5 1015.3 - 0.0
29/08:30pm 24.7 24.7 9.8 39 8.2 CALM 0 0 0 0 1014.9 1014.9 0.0
29/08:00pm 26.2 26.0 9.1 34 9.3 CALM 0 0 0 0 1014.4 - 0.0
29/07:30pm 27.6 26.5 9.9 33 9.9 ENE 6 7 3 4 1014.2 1014.2 0.0
29/07:00pm 28.7 27.0 9.9 31 10.5 NE 9 11 5 6 1013.8 - 0.0
29/06:30pm 31.8 27.6 7.5 22 13.3 E 19 24 10 13 1013.5 1013.5 0.0
29/06:00pm 32.9 28.8 7.7 21 13.9 E 19 26 10 14 1013.3 - 0.0
29/05:30pm 33.4 29.9 7.4 20 14.3 ENE 15 20 8 11 1013.1 1013.1 0.0
29/05:00pm 33.9 30.0 7.0 19 14.8 ESE 17 19 9 10 1013.0 - 0.0
29/04:30pm 33.9 29.6 7.0 19 14.8 ENE 19 24 10 13 1012.8 1012.8 0.0
29/04:00pm 34.2 32.1 6.5 18 15.1 NNE 7 15 4 8 1013.1 - 0.0
29/03:30pm 34.4 29.8 6.7 18 15.2 E 20 28 11 15 1013.2 1013.2 0.0
29/03:00pm 34.0 29.1 7.1 19 14.8 ESE 22 32 12 17 1013.5 - 0.0
29/02:30pm 34.2 29.9 8.0 20 14.6 ENE 20 30 11 16 1013.7 1013.7 0.0
29/02:00pm 34.3 30.4 8.8 21 14.4 NE 19 37 10 20 1014.2 - 0.0
29/01:30pm 33.5 30.0 8.9 22 13.9 E 17 30 9 16 1015.0 1015.0 0.0
29/01:00pm 33.3 30.9 10.0 24 13.4 NNE 13 22 7 12 1015.7 - 0.0
29/12:30pm 32.1 27.7 9.0 24 13.0 E 22 37 12 20 1016.2 1016.2 0.0
29/12:00pm 32.2 28.2 9.1 24 13.0 ENE 20 32 11 17 1016.7 - 0.0
29/11:30am 31.9 27.8 8.8 24 12.9 E 20 28 11 15 1017.1 1017.1 0.0
29/11:00am 31.3 25.6 8.3 24 12.7 E 28 35 15 19 1017.3 - 0.0
29/10:30am 30.9 25.0 7.4 23 12.8 ESE 28 37 15 20 1017.5 1017.5 0.2
29/10:00am 30.7 25.1 7.2 23 12.7 ESE 26 32 14 17 1017.6 - 0.2
29/09:30am 29.4 23.3 6.7 24 12.1 E 28 35 15 19 1017.4 1017.4 0.2
29/09:00am 28.3 23.2 7.5 27 11.2 ESE 24 33 13 18 1017.3 - 0.2
29/08:30am 25.8 22.5 7.9 32 9.5 E 15 19 8 10 1017.1 1017.1 0.2
29/08:00am 24.5 21.2 8.0 35 8.8 E 15 17 8 9 1016.9 - 0.2
29/07:30am 22.2 19.0 8.3 41 7.3 E 15 17 8 9 1016.7 1016.7 0.2
29/07:00am 22.8 20.1 8.9 41 7.4 E 13 17 7 9 1016.3 - 0.2
29/06:30am 20.8 18.1 9.1 47 6.2 E 13 15 7 8 1015.9 1015.9 0.2
29/06:00am 21.0 18.4 9.3 47 6.2 E 13 13 7 7 1015.6 - 0.2
29/05:30am 18.5 17.2 9.8 57 4.6 E 7 9 4 5 1015.5 1015.5 0.2
29/05:00am 18.1 18.3 10.5 61 4.1 CALM 0 0 0 0 1015.3 - 0.2
29/04:30am 17.3 17.1 9.0 58 4.3 CALM 0 0 0 0 1015.1 1015.1 0.2
29/04:00am 18.2 18.3 10.3 60 4.2 CALM 0 0 0 0 1014.9 - 0.2
29/03:30am 18.7 19.3 11.8 64 3.8 CALM 0 0 0 0 1014.9 1014.9 0.2
29/03:00am 19.2 19.6 11.3 60 4.3 CALM 0 0 0 0 1014.9 - 0.2
29/02:30am 19.9 19.2 11.9 60 4.4 ESE 7 11 4 6 1015.0 1015.0 0.2
29/02:00am 20.2 19.4 11.7 58 4.7 E 7 9 4 5 1015.1 - 0.2
29/01:30am 20.7 21.4 12.1 58 4.8 CALM 0 0 0 0 1015.4 1015.4 0.2
29/01:00am 21.4 20.9 12.0 55 5.3 ENE 6 7 3 4 1015.3 - 0.2
29/12:30am 22.0 21.4 12.3 54 5.5 E 7 9 4 5 1015.4 1015.4 0.2
29/12:00am 21.7 20.2 12.0 54 5.4 E 11 13 6 7 1015.5 - 0.2
 
Date/Time
CST
Temp
°C
App
Temp
°C
Dew
Point
Rel
Hum
%
Delta-T
°C
Wind Press
QNH
hPa
Press
MSL
hPa
Rain
since 9 am
mm
Dir
 
Spd
km/h
Gust
km/h
Spd
kts
Gust
kts
28/11:30pm 22.2 20.7 11.9 52 5.8 ESE 11 11 6 6 1015.6 1015.6 0.2
28/11:00pm 21.8 20.8 10.9 50 6.0 ESE 7 9 4 5 1015.7 - 0.2
28/10:30pm 22.0 22.2 10.5 48 6.3 CALM 0 0 0 0 1015.7 1015.7 0.2
28/10:00pm 22.2 22.4 10.4 47 6.5 CALM 0 0 0 0 1015.8 - 0.2
28/09:30pm 24.1 23.2 11.4 45 7.1 S 7 11 4 6 1015.7 1015.7 0.2
28/09:00pm 24.4 23.9 10.7 42 7.6 SW 4 11 2 6 1015.4 - 0.2
28/08:30pm 25.0 25.1 10.1 39 8.2 CALM 0 0 0 0 1014.9 1014.9 0.2
28/08:00pm 27.1 26.6 12.0 39 8.7 NW 6 11 3 6 1014.5 - 0.2
28/07:30pm 27.7 26.7 10.9 35 9.5 WNW 7 9 4 5 1014.1 1014.1 0.2
28/07:00pm 29.2 27.6 11.7 34 10.1 N 11 15 6 8 1013.6 - 0.2
28/06:30pm 31.2 29.1 8.2 24 12.7 ESE 9 13 5 7 1013.3 1013.3 0.2
28/06:00pm 32.6 29.5 8.8 23 13.4 SSE 15 20 8 11 1013.0 - 0.2
28/05:30pm 32.9 30.8 8.4 22 13.7 E 9 13 5 7 1012.9 1012.9 0.2
28/05:00pm 33.2 31.2 8.6 22 13.8 ESE 9 20 5 11 1012.7 - 0.2
28/04:30pm 32.8 30.9 8.9 23 13.5 SSE 9 19 5 10 1012.7 1012.7 0.2
28/04:00pm 32.5 29.7 8.7 23 13.3 NNE 13 17 7 9 1013.0 - 0.2
28/03:30pm 33.4 31.0 8.8 22 13.9 ESE 11 17 6 9 1013.4 1013.4 0.2

Other Formats:

Comma delimited format used in spreadsheet applications
http://www.bom.gov.au/fwo/IDD60801/IDD60801.95214.axf

JavaScript Object Notation format (JSON) in row-major order
http://www.bom.gov.au/fwo/IDD60801/IDD60801.95214.json